Greater Binghamton/Edwin A Link field
KBGM : now visible

Airfield :











YOU CAN JOIN US ON...

 
LOGIN :

Register | Disclaimer

   EN    FR    IT 

 









Legend :    VFR   Marginal VFR   IFR   Intensive IFR   Very Intensive IFR
Visi :
Ceiling :
>= 8 km
>= 3000ft
5 to 8 km
1000 to 3000 ft
1500m to 5 km
500 to 1000 ft
800 to 1500m
200 to 500 ft
< 800m
< 200 ft
Symbols :   Thunderstorms  Fog  Heavy snow  Heavy precipitations  Wind > 20 kt






- Airport Elevation : 1636 ft
- IATA code : BGM


KBGM - Greater Binghamton/Edwin A Link field

CURRENT METAR :
  • 161738Z 15004KT 10SM SCT026 19/14 A3026 RMK AO2 T01940139 $

EXPIRED METARs :
  • 161705Z 14006KT 10SM BKN023 19/14 A3026 RMK AO2 T01890144 $
  • 161653Z 14006KT 10SM SCT023 19/14 A3026 RMK AO2 SLP245 T01890144 $
  • 161638Z 13005KT 10SM FEW017 SCT023 18/14 A3026 RMK AO2 T01780139 $
  • 161617Z 12005KT 10SM BKN017 18/14 A3027 RMK AO2 T01780139 $
  • 161553Z 11008KT 10SM FEW014 18/14 A3027 RMK AO2 SLP245 T01780139 $
  • 161515Z 10007KT 10SM SCT011 SCT016 17/14 A3027 RMK AO2 T01670139 $
  • 161453Z 07007KT 10SM OVC011 16/13 A3027 RMK AO2 SLP248 T01560133 51012 $

TAF KBGM
Valid from the 16 at 18:00 until the 17 at 18:00 UTC


161739Z 1618/1718 12004KT P6SM BKN035
FM170700 14004KT 4SM BR BKN025
FM170900 14004KT 3SM BR BKN009
FM171400 15005KT P6SM BKN015
FM171700 16006KT P6SM BKN025
KZNY FIR / North America



MET'MAP, your aeronautical weather chart ! - Copyright ORBIFLY December 2007 - Disclaimer

ORBIFLY MET'MAP TEAM :

Programming & Development : Alexandra Zaïnal
Concept & original design : Baudouin d'Aumeries
Assistance for programming : Marc-Olivier Méhu
Technical & hardware support : Manuel Goepfert

Contact : metmap@orbifly.com




SOURCES & CREDITS :

   NOAA       Earth
Advisory